createdAt,value
2022-09-23T00:03:23.629Z,5.67
2022-09-23T00:08:26.048Z,6.25
2022-09-23T00:13:28.183Z,8.75
2022-09-23T00:18:30.317Z,5.67
2022-09-23T00:23:33.259Z,5.33
2022-09-23T00:28:35.991Z,4.33
2022-09-23T00:33:38.307Z,7.75
2022-09-23T00:38:40.398Z,5.00
2022-09-23T00:43:55.361Z,5.00
2022-09-23T00:49:02.234Z,5.00
2022-09-23T00:54:06.836Z,4.00
2022-09-23T00:59:10.533Z,4.75
2022-09-23T01:04:14.844Z,4.25
2022-09-23T01:09:18.128Z,5.00
2022-09-23T01:14:46.773Z,6.00
2022-09-23T01:20:16.736Z,5.50
2022-09-23T01:25:28.253Z,4.67
2022-09-23T01:30:45.633Z,5.00
2022-09-23T01:36:02.838Z,5.00
2022-09-23T01:41:21.118Z,5.00
2022-09-23T01:46:29.728Z,4.00
2022-09-23T01:51:37.624Z,3.67
2022-09-23T01:56:46.326Z,4.33
2022-09-23T02:01:55.840Z,4.67
2022-09-23T02:07:04.115Z,5.00
2022-09-23T02:12:12.856Z,5.00
2022-09-23T02:17:22.974Z,4.50
2022-09-23T02:22:35.519Z,4.25
2022-09-23T02:27:50.307Z,4.00
2022-09-23T02:32:54.824Z,3.00
2022-09-23T02:38:09.034Z,4.33
2022-09-23T02:43:20.303Z,4.00
2022-09-23T02:48:27.519Z,4.67
2022-09-23T02:53:33.920Z,4.00
2022-09-23T02:58:37.207Z,4.67
2022-09-23T03:04:17.810Z,3.67
2022-09-23T03:09:27.297Z,4.00
2022-09-23T03:14:41.784Z,4.00
2022-09-23T03:19:53.987Z,4.00
2022-09-23T03:25:02.655Z,4.00
2022-09-23T03:30:07.297Z,4.00
2022-09-23T03:35:09.922Z,4.00
2022-09-23T03:40:12.093Z,4.00
2022-09-23T03:45:18.686Z,3.50
2022-09-23T03:50:21.427Z,4.00
2022-09-23T03:55:23.630Z,4.00
2022-09-23T04:00:26.775Z,4.50
2022-09-23T04:05:30.482Z,6.00
2022-09-23T04:10:32.586Z,4.00
2022-09-23T04:15:34.866Z,9.00
2022-09-23T04:20:39.413Z,8.75
2022-09-23T04:25:47.894Z,8.25
2022-09-23T04:30:54.881Z,5.00
2022-09-23T04:35:57.027Z,4.75
2022-09-23T04:40:59.453Z,4.50
2022-09-23T04:46:04.254Z,5.00
2022-09-23T04:51:12.318Z,5.75
2022-09-23T04:56:20.144Z,3.00
2022-09-23T05:01:25.424Z,4.00
2022-09-23T05:06:27.653Z,5.00
2022-09-23T05:11:31.748Z,4.75
2022-09-23T05:16:34.121Z,10.00
2022-09-23T05:21:37.878Z,5.75
2022-09-23T05:26:40.164Z,5.00
2022-09-23T05:31:42.313Z,4.00
2022-09-23T05:36:44.777Z,5.00
2022-09-23T05:41:46.933Z,4.75
2022-09-23T05:46:49.341Z,4.25
2022-09-23T05:51:51.565Z,4.00
2022-09-23T05:56:53.662Z,4.00
2022-09-23T06:01:56.858Z,4.00
2022-09-23T06:07:02.913Z,2.25
2022-09-23T06:12:06.490Z,5.00
2022-09-23T06:17:08.769Z,5.00
2022-09-23T06:22:12.004Z,6.00
2022-09-23T06:27:14.111Z,6.00
2022-09-23T06:32:16.759Z,3.75
2022-09-23T06:37:20.644Z,3.00
2022-09-23T06:42:23.137Z,3.00
2022-09-23T06:47:25.332Z,4.00
2022-09-23T06:52:28.683Z,3.00
2022-09-23T06:57:31.674Z,4.00
2022-09-23T07:02:33.986Z,3.00
2022-09-23T07:07:37.578Z,3.33
2022-09-23T07:12:39.761Z,4.00
2022-09-23T07:17:43.230Z,3.00
2022-09-23T07:22:52.654Z,4.00
2022-09-23T07:27:56.222Z,2.00
2022-09-23T07:32:58.295Z,3.00
2022-09-23T07:38:00.876Z,4.00
2022-09-23T07:43:04.743Z,3.00
2022-09-23T07:48:06.947Z,4.00
2022-09-23T07:53:09.170Z,3.00
2022-09-23T07:58:11.330Z,3.33
2022-09-23T08:03:14.913Z,3.00
2022-09-23T08:08:17.439Z,4.33
2022-09-23T08:13:19.569Z,4.00
2022-09-23T08:18:21.843Z,4.00
2022-09-23T08:23:24.238Z,3.00
2022-09-23T08:28:27.286Z,3.00
2022-09-23T08:33:29.823Z,3.00
2022-09-23T08:38:32.175Z,3.33
2022-09-23T08:43:36.593Z,3.33
2022-09-23T08:48:44.490Z,3.00
2022-09-23T08:53:47.706Z,4.00
2022-09-23T08:59:07.973Z,4.00
2022-09-23T09:04:22.229Z,3.67
2022-09-23T09:09:30.453Z,2.67
2022-09-23T09:15:01.335Z,5.00
2022-09-23T09:20:18.974Z,4.33
2022-09-23T09:25:34.143Z,5.00
2022-09-23T09:30:36.910Z,6.00
2022-09-23T09:36:01.913Z,4.00
2022-09-23T09:41:18.425Z,5.00
2022-09-23T09:46:36.557Z,6.00
2022-09-23T09:51:41.320Z,6.00
2022-09-23T09:56:44.871Z,5.00
2022-09-23T10:01:47.408Z,4.00
2022-09-23T10:07:13.554Z,4.00
2022-09-23T10:12:19.294Z,5.33
2022-09-23T10:17:34.104Z,5.00
2022-09-23T10:22:39.856Z,4.00
2022-09-23T10:27:42.017Z,4.00
2022-09-23T10:32:45.233Z,4.00
2022-09-23T10:37:53.285Z,4.67
2022-09-23T10:43:58.212Z,4.00
2022-09-23T10:49:10.150Z,7.00
2022-09-23T10:54:33.715Z,5.67
2022-09-23T10:59:57.698Z,5.00
2022-09-23T11:05:12.093Z,6.00
2022-09-23T11:10:35.332Z,6.00
2022-09-23T11:16:07.216Z,5.67
2022-09-23T11:21:40.135Z,4.33
2022-09-23T11:26:57.837Z,2.67
2022-09-23T11:32:48.119Z,5.00
2022-09-23T11:38:06.639Z,3.00
2022-09-23T11:43:26.873Z,5.67
2022-09-23T11:48:51.105Z,6.00
2022-09-23T11:54:10.011Z,6.00
2022-09-23T11:59:40.522Z,5.33
2022-09-23T12:04:57.096Z,5.00
2022-09-23T12:10:06.233Z,5.00
2022-09-23T12:15:20.803Z,5.00
2022-09-23T12:20:56.135Z,4.33
2022-09-23T12:26:03.138Z,6.00
2022-09-23T12:31:11.368Z,4.67
2022-09-23T12:36:13.771Z,3.33
2022-09-23T12:41:27.423Z,6.00
2022-09-23T12:46:29.616Z,5.67
2022-09-23T12:51:34.820Z,6.00
2022-09-23T12:56:36.838Z,5.00
2022-09-23T13:01:39.439Z,5.00
2022-09-23T13:06:50.834Z,5.67
2022-09-23T13:12:01.730Z,4.67
2022-09-23T13:17:04.644Z,4.67
2022-09-23T13:22:24.358Z,6.00
2022-09-23T13:27:33.929Z,7.33
2022-09-23T13:32:41.941Z,0.67
2022-09-23T13:37:56.984Z,4.67
2022-09-23T13:43:32.149Z,5.00
2022-09-23T13:48:43.679Z,6.00
2022-09-23T13:53:53.759Z,5.00
2022-09-23T13:59:26.526Z,5.33
2022-09-23T14:04:28.877Z,3.33
2022-09-23T14:09:33.565Z,4.33
2022-09-23T14:14:38.555Z,5.00
2022-09-23T14:19:42.648Z,4.33
2022-09-23T14:24:44.910Z,4.00
2022-09-23T14:29:49.477Z,4.67
2022-09-23T14:35:00.870Z,5.00
2022-09-23T14:40:09.248Z,5.33
2022-09-23T14:45:30.245Z,4.67
2022-09-23T14:50:48.673Z,4.67
2022-09-23T14:56:07.295Z,4.33
2022-09-23T15:01:32.481Z,5.00
2022-09-23T15:06:40.516Z,5.00
2022-09-23T15:11:42.769Z,5.00
2022-09-23T15:16:47.467Z,5.00
2022-09-23T15:21:53.735Z,5.00
2022-09-23T15:26:58.138Z,5.00
2022-09-23T15:32:00.541Z,4.67
2022-09-23T15:37:03.241Z,3.33
2022-09-23T15:42:07.273Z,6.00
2022-09-23T15:47:18.976Z,6.00
2022-09-23T15:52:22.942Z,5.00
2022-09-23T15:57:26.126Z,4.00
2022-09-23T16:02:29.021Z,4.67
2022-09-23T16:07:31.225Z,5.00
2022-09-23T16:12:33.401Z,6.00
2022-09-23T16:17:36.711Z,3.67
2022-09-23T16:22:39.530Z,2.00
2022-09-23T16:27:41.804Z,2.67
2022-09-23T16:32:44.222Z,4.33
2022-09-23T16:37:49.129Z,6.00
2022-09-23T16:42:55.067Z,3.33
2022-09-23T16:47:58.010Z,5.33
2022-09-23T16:53:00.426Z,4.67
2022-09-23T16:58:05.292Z,3.67
2022-09-23T17:03:31.130Z,5.00
2022-09-23T17:08:33.778Z,6.00
2022-09-23T17:13:35.883Z,5.67
2022-09-23T17:18:41.290Z,5.00
2022-09-23T17:23:43.483Z,6.00
2022-09-23T17:28:45.735Z,6.00
2022-09-23T17:33:48.894Z,6.00
2022-09-23T17:38:54.306Z,8.00
2022-09-23T17:43:58.706Z,6.67
2022-09-23T17:49:01.855Z,5.00
2022-09-23T17:54:04.221Z,5.00
2022-09-23T17:59:06.529Z,3.67
2022-09-23T18:04:08.842Z,5.00
2022-09-23T18:09:11.414Z,4.67
2022-09-23T18:14:22.242Z,5.67
2022-09-23T18:19:24.989Z,5.00
2022-09-23T18:24:32.820Z,5.00
2022-09-23T18:29:36.291Z,6.33
2022-09-23T18:34:38.468Z,6.00
2022-09-23T18:39:41.886Z,5.00
2022-09-23T18:44:44.706Z,4.00
2022-09-23T18:50:05.377Z,6.33
2022-09-23T18:55:08.224Z,8.33
2022-09-23T19:00:10.989Z,7.67
2022-09-23T19:05:13.182Z,4.33
2022-09-23T19:10:15.457Z,6.00
2022-09-23T19:15:20.163Z,7.00
2022-09-23T19:20:22.858Z,7.00
2022-09-23T19:25:25.054Z,6.33
2022-09-23T19:30:27.194Z,7.00
2022-09-23T19:35:29.623Z,7.00
2022-09-23T19:40:31.983Z,7.67
2022-09-23T19:45:34.429Z,8.67
2022-09-23T19:50:40.055Z,5.00
2022-09-23T19:55:44.397Z,6.00
2022-09-23T20:00:46.563Z,4.00
2022-09-23T20:05:58.267Z,6.00
2022-09-23T20:11:15.656Z,6.00
2022-09-23T20:16:19.766Z,6.00
2022-09-23T20:21:22.196Z,6.00
2022-09-23T20:26:53.843Z,7.00
2022-09-23T20:31:57.117Z,8.00
2022-09-23T20:37:00.329Z,6.00
2022-09-23T20:42:02.964Z,9.00
2022-09-23T20:47:05.151Z,7.67
2022-09-23T20:52:07.286Z,7.00
2022-09-23T20:57:12.176Z,6.00
2022-09-23T21:02:14.535Z,7.00
2022-09-23T21:07:17.506Z,6.67
2022-09-23T21:12:19.703Z,7.67
2022-09-23T21:17:21.934Z,7.00
2022-09-23T21:22:24.106Z,7.00
2022-09-23T21:27:27.210Z,7.00
2022-09-23T21:32:29.498Z,9.00
2022-09-23T21:37:31.840Z,7.00
2022-09-23T21:42:34.148Z,7.33
2022-09-23T21:47:38.475Z,9.00
2022-09-23T21:52:40.616Z,6.33
2022-09-23T21:57:44.256Z,7.00
2022-09-23T22:02:46.383Z,7.00
2022-09-23T22:07:48.517Z,8.33
2022-09-23T22:12:50.631Z,8.33
2022-09-23T22:17:52.948Z,8.67
2022-09-23T22:22:56.038Z,9.33
2022-09-23T22:28:16.566Z,8.00
2022-09-23T22:33:18.658Z,9.00
2022-09-23T22:38:20.772Z,8.00
2022-09-23T22:43:23.241Z,6.00
2022-09-23T22:48:25.905Z,6.33
2022-09-23T22:53:28.488Z,7.00
2022-09-23T22:58:32.512Z,9.00
2022-09-23T23:03:35.689Z,7.00
2022-09-23T23:08:37.919Z,8.00
2022-09-23T23:13:41.997Z,8.00
2022-09-23T23:18:45.564Z,7.00
2022-09-23T23:23:50.597Z,8.00
2022-09-23T23:28:54.183Z,8.00
2022-09-23T23:33:56.365Z,7.00
2022-09-23T23:38:59.506Z,9.33
2022-09-23T23:44:02.242Z,7.67
2022-09-23T23:49:05.037Z,6.67
2022-09-23T23:54:07.448Z,8.00
2022-09-23T23:59:09.692Z,5.33
